Time;durP1;ratioP1;P1;durP2;ratioP2;P2;SDS_P1;SDS_P2;PMS_P1;PMS_P2;Temp;Humidity;BMP_temperature;BMP_pressure;BME280_temperature;BME280_humidity;BME280_pressure;Samples;Min_cycle;Max_cycle;Signal;HPM_P1;HPM_P2
2023/07/06 08:08:43;;;;;;;2250.00;999.90;;;;;;;19.19;51.35;96785.97;2100209;27;20592;-58
2023/07/06 08:10:53;;;;;;;2250.00;999.90;;;;;;;19.93;49.68;96789.94;2084094;28;20560;-58
2023/07/06 08:11:55;;;;;;;2250.00;999.90;;;;;;;20.44;48.96;96783.16;2082215;28;20193;-58
2023/07/06 08:12:56;;;;;;;2250.00;999.90;;;;;;;20.87;48.04;96794.69;2082365;28;20641;-58
2023/07/06 08:13:59;;;;;;;2250.00;999.90;;;;;;;20.85;47.75;96783.38;2082009;28;20655;-58
2023/07/06 08:15:02;;;;;;;2250.00;999.90;;;;;;;20.75;47.51;96787.75;2076530;28;20226;-58
2023/07/06 08:16:05;;;;;;;2250.00;999.90;;;;;;;20.69;47.42;96783.78;2070587;28;20202;-58
2023/07/06 08:17:07;;;;;;;2250.00;999.90;;;;;;;20.92;46.84;96792.50;2071567;28;20248;-58
2023/07/06 08:18:09;;;;;;;2250.00;999.90;;;;;;;21.18;46.59;96784.16;2074408;28;20202;-58
2023/07/06 08:19:12;;;;;;;2250.00;999.90;;;;;;;21.36;46.46;96779.88;2075062;28;20203;-58
2023/07/06 08:20:33;;;;;;;2250.00;999.90;;;;;;;21.56;45.58;96779.16;2073979;28;20617;-58
2023/07/06 08:21:55;;;;;;;2250.00;999.90;;;;;;;21.19;46.06;96784.00;2075949;28;20566;-58
2023/07/06 08:23:12;;;;;;;2250.00;999.90;;;;;;;21.79;46.33;96782.47;2073988;28;20209;-58
2023/07/06 08:24:13;;;;;;;2250.00;999.90;;;;;;;21.94;45.49;96786.44;2073518;28;20230;-58
2023/07/06 08:25:15;;;;;;;2250.00;999.90;;;;;;;21.87;45.48;96781.81;2070207;28;20227;-58
2023/07/06 08:26:17;;;;;;;2250.00;999.90;;;;;;;21.35;46.03;96780.03;2070783;28;20838;-58
2023/07/06 08:27:19;;;;;;;2250.00;999.90;;;;;;;21.09;46.52;96785.78;2072504;28;20618;-58
2023/07/06 08:28:29;;;;;;;2250.00;999.90;;;;;;;21.50;46.52;96786.66;2073899;28;20202;-58
2023/07/06 08:29:31;;;;;;;2250.00;999.90;;;;;;;21.53;45.76;96780.25;2074022;28;20199;-58
2023/07/06 08:30:34;;;;;;;2250.00;999.90;;;;;;;21.45;46.01;96783.56;2074145;28;20217;-58
2023/07/06 08:31:36;;;;;;;2250.00;999.90;;;;;;;21.53;46.06;96789.06;2074074;28;20803;-58
2023/07/06 08:32:37;;;;;;;2250.00;999.90;;;;;;;21.62;45.79;96781.28;2073974;28;20206;-58
2023/07/06 08:33:39;;;;;;;1887.18;963.20;;;;;;;21.18;45.90;96776.19;2069393;28;20199;-58
2023/07/06 08:34:41;;;;;;;2250.00;999.90;;;;;;;21.10;46.99;96781.28;2072839;28;20222;-58
2023/07/06 08:35:44;;;;;;;2250.00;999.90;;;;;;;22.16;45.97;96784.50;2074680;28;20198;-58
2023/07/06 08:36:46;;;;;;;1073.88;967.38;;;;;;;22.31;45.04;96783.13;2074346;28;20245;-58
2023/07/06 08:37:47;;;;;;;904.72;820.17;;;;;;;21.92;44.83;96790.22;2073917;28;20205;-59
2023/07/06 08:38:49;;;;;;;1044.65;940.42;;;;;;;21.68;45.87;96776.28;2075023;28;20194;-57
2023/07/06 08:39:50;;;;;;;1030.97;928.75;;;;;;;21.54;46.20;96781.94;2073746;28;20226;-58
2023/07/06 08:40:52;;;;;;;2250.00;999.90;;;;;;;21.79;45.87;96785.13;2074096;28;20197;-58
2023/07/06 08:41:56;;;;;;;1341.38;967.05;;;;;;;21.69;45.85;96782.44;2072754;28;20190;-58
2023/07/06 08:43:00;;;;;;;1003.90;907.22;;;;;;;21.95;45.29;96782.81;2071999;28;20202;-58
2023/07/06 08:44:03;;;;;;;1030.20;935.17;;;;;;;22.44;44.66;96784.72;2072061;28;20195;-58
2023/07/06 08:45:14;;;;;;;1112.35;998.63;;;;;;;22.90;44.09;96776.97;2073718;28;20218;-58
2023/07/06 08:46:15;;;;;;;1019.33;929.25;;;;;;;22.65;44.67;96777.44;2072534;28;20208;-58
2023/07/06 08:47:18;;;;;;;1068.72;964.72;;;;;;;22.70;45.00;96778.81;2072663;28;20201;-58
2023/07/06 08:48:25;;;;;;;986.03;891.70;;;;;;;22.80;44.79;96779.66;2070024;28;20309;-58
2023/07/06 08:49:32;;;;;;;705.00;640.17;;;;;;;22.72;44.56;96777.69;2076746;28;20198;-58
2023/07/06 08:50:36;;;;;;;700.08;638.10;;;;;;;22.11;44.98;96784.91;2075517;28;20240;-58
2023/07/06 08:51:39;;;;;;;831.92;751.90;;;;;;;22.76;44.88;96786.25;2074236;28;20198;-58
2023/07/06 08:52:42;;;;;;;675.35;616.50;;;;;;;22.60;44.57;96784.13;2074339;28;20194;-58
2023/07/06 08:54:21;;;;;;;680.70;621.10;;;;;;;23.31;43.53;96778.47;2074124;28;20205;-58
2023/07/06 08:55:24;;;;;;;753.15;688.75;;;;;;;22.88;43.29;96777.13;2073059;28;20232;-58
2023/07/06 08:56:29;;;;;;;698.55;638.17;;;;;;;22.57;44.89;96779.13;2072678;28;20240;-59
2023/07/06 08:57:32;;;;;;;748.88;685.20;;;;;;;22.65;44.89;96777.44;2074000;28;20541;-58
2023/07/06 08:58:37;;;;;;;755.05;689.70;;;;;;;22.80;45.09;96776.97;2073433;28;20190;-59
2023/07/06 08:59:42;;;;;;;757.90;691.83;;;;;;;23.20;45.25;96783.97;2073830;28;20197;-58
2023/07/06 09:00:46;;;;;;;876.10;783.80;;;;;;;23.06;45.61;96779.03;2072504;28;20572;-58
2023/07/06 09:01:48;;;;;;;1057.28;949.10;;;;;;;23.14;46.09;96784.50;2070445;28;20285;-58
2023/07/06 09:03:04;;;;;;;855.63;770.80;;;;;;;22.90;46.17;96772.50;2070172;28;20252;-59
2023/07/06 09:04:14;;;;;;;750.67;671.72;;;;;;;22.37;47.24;96784.41;2073545;28;20244;-59
2023/07/06 09:05:16;;;;;;;828.05;740.63;;;;;;;22.65;46.60;96779.22;2073381;28;20317;-60
2023/07/06 09:06:21;;;;;;;938.45;843.63;;;;;;;22.52;47.09;96781.34;2081944;28;20267;-59
2023/07/06 09:07:34;;;;;;;1093.78;981.38;;;;;;;22.71;46.92;96784.00;2080986;28;20209;-60
2023/07/06 09:08:36;;;;;;;561.25;506.27;;;;;;;22.39;46.82;96786.97;2074135;28;20736;-60
2023/07/06 09:09:40;;;;;;;691.60;628.72;;;;;;;22.29;47.17;96777.09;2073267;28;20202;-59
2023/07/06 09:10:42;;;;;;;806.28;737.15;;;;;;;22.20;47.22;96777.09;2072979;28;20260;-59
2023/07/06 09:11:46;;;;;;;949.40;848.67;;;;;;;22.21;47.87;96778.75;2075490;28;20211;-59
2023/07/06 09:12:48;;;;;;;1105.70;987.38;;;;;;;22.26;48.48;96785.38;2074784;28;20197;-59
2023/07/06 09:13:52;;;;;;;709.08;643.50;;;;;;;22.30;47.23;96778.78;2070344;28;20236;-59
2023/07/06 09:14:55;;;;;;;840.25;769.67;;;;;;;22.32;47.03;96786.63;2070374;28;20275;-59
2023/07/06 09:16:03;;;;;;;892.00;798.03;;;;;;;22.37;47.88;96779.09;2073702;28;20289;-59
2023/07/06 09:17:05;;;;;;;763.70;695.00;;;;;;;22.21;47.57;96781.44;2073475;28;20634;-59
2023/07/06 09:18:13;;;;;;;554.60;497.10;;;;;;;22.01;48.41;96784.06;2070381;28;20194;-59
2023/07/06 09:19:17;;;;;;;1064.97;950.15;;;;;;;22.02;48.23;96781.25;2072483;28;20213;-59
2023/07/06 09:20:21;;;;;;;1033.07;934.78;;;;;;;22.04;49.37;96783.78;2073839;28;20274;-59
2023/07/06 09:21:25;;;;;;;934.90;837.78;;;;;;;22.21;48.22;96782.28;2070230;28;20217;-59
2023/07/06 09:22:27;;;;;;;1085.40;970.88;;;;;;;22.09;48.29;96786.03;2065004;28;20857;-59
2023/07/06 09:23:30;;;;;;;1080.78;967.85;;;;;;;22.30;48.49;96785.94;2064821;28;20194;-59
2023/07/06 09:24:34;;;;;;;1050.60;940.28;;;;;;;22.19;48.13;96781.56;2064642;28;20226;-59
2023/07/06 09:26:43;;;;;;;1042.15;930.10;;;;;;;22.09;48.26;96784.19;2116926;27;20562;-59
2023/07/06 09:29:11;;;;;;;598.70;538.75;;;;;;;22.07;48.28;96783.53;2107534;27;20591;-59
2023/07/06 09:30:29;;;;;;;943.97;844.42;;;;;;;22.59;47.71;96782.44;2095155;27;20777;-59
2023/07/06 09:31:30;;;;;;;973.58;874.17;;;;;;;23.13;46.99;96785.47;2092399;28;20202;-59
2023/07/06 09:32:35;;;;;;;954.42;866.13;;;;;;;22.97;47.14;96786.09;2091347;28;20233;-59
2023/07/06 09:33:43;;;;;;;704.28;636.85;;;;;;;23.11;46.56;96784.81;2091752;28;20231;-59
2023/07/06 09:34:54;;;;;;;856.58;782.60;;;;;;;23.10;46.38;96781.28;2087969;28;20224;-59
2023/07/06 09:35:57;;;;;;;897.53;819.72;;;;;;;23.61;45.46;96781.00;2086437;28;20196;-60
2023/07/06 09:36:59;;;;;;;533.30;481.90;;;;;;;23.88;44.82;96782.00;2087186;28;20204;-59
2023/07/06 09:38:03;;;;;;;1095.60;989.67;;;;;;;23.54;44.41;96777.25;2087191;28;20193;-59
2023/07/06 09:39:05;;;;;;;937.92;849.03;;;;;;;22.91;45.12;96771.50;2087027;28;20200;-60
2023/07/06 09:40:09;;;;;;;410.20;366.38;;;;;;;22.91;45.56;96779.50;2085486;28;20278;-60
2023/07/06 09:41:23;;;;;;;358.00;301.65;;;;;;;23.42;44.74;96781.94;2082060;28;20511;-60
2023/07/06 09:42:24;;;;;;;436.65;390.55;;;;;;;23.55;45.15;96779.75;2082958;28;20588;-60
2023/07/06 09:43:29;;;;;;;380.02;333.42;;;;;;;24.27;43.96;96776.47;2083754;28;20204;-60
2023/07/06 09:44:32;;;;;;;706.35;645.08;;;;;;;24.76;42.96;96778.78;2082341;28;20200;-61
2023/07/06 09:45:34;;;;;;;1156.80;999.90;;;;;;;25.07;42.49;96776.47;2083396;28;20777;-61
2023/07/06 09:46:36;;;;;;;1150.18;999.90;;;;;;;25.47;42.22;96773.41;2083561;28;20696;-60
2023/07/06 09:47:45;;;;;;;926.22;850.47;;;;;;;25.21;41.47;96780.41;2083883;28;20196;-61
2023/07/06 09:48:47;;;;;;;197.40;181.70;;;;;;;25.21;40.83;96785.75;2084440;28;20874;-60
2023/07/06 09:49:57;;;;;;;162.52;150.95;;;;;;;25.10;41.45;96780.69;2083749;28;20750;-60
2023/07/06 09:51:03;;;;;;;105.60;97.20;;;;;;;25.25;41.27;96786.28;2084362;28;20801;-61
2023/07/06 09:52:12;;;;;;;109.70;101.82;;;;;;;24.65;42.52;96776.34;2084239;28;20189;-60
2023/07/06 09:53:23;;;;;;;11.13;7.80;;;;;;;23.83;42.66;96776.28;2083718;28;20205;-60
2023/07/06 09:54:35;;;;;;;331.55;307.02;;;;;;;23.25;44.41;96775.50;2083383;28;20201;-60
2023/07/06 09:55:37;;;;;;;306.45;285.48;;;;;;;23.71;43.57;96778.31;2084034;28;20359;-60
2023/07/06 09:56:38;;;;;;;402.88;374.88;;;;;;;24.54;42.32;96780.03;2084607;28;20201;-60
2023/07/06 09:57:40;;;;;;;205.40;191.02;;;;;;;23.61;42.97;96781.00;2083470;28;20292;-60
2023/07/06 09:58:45;;;;;;;24.83;19.02;;;;;;;23.71;43.03;96780.97;2083656;28;20200;-60
2023/07/06 09:59:48;;;;;;;534.47;494.73;;;;;;;24.24;42.35;96782.06;2083417;28;20240;-60
2023/07/06 10:01:01;;;;;;;13.02;2.30;;;;;;;24.68;41.17;96778.69;2083097;28;20287;-60
2023/07/06 10:02:12;;;;;;;11.85;2.38;;;;;;;24.70;41.71;96784.72;2085679;28;20230;-61
2023/07/06 10:03:39;;;;;;;287.17;266.58;;;;;;;25.12;41.75;96785.88;2084322;28;20253;-60
2023/07/06 10:05:01;;;;;;;11.48;2.50;;;;;;;24.25;42.56;96783.75;2084418;28;20334;-61
2023/07/06 10:06:24;;;;;;;11.05;3.92;;;;;;;24.57;42.88;96779.72;2083945;28;20362;-60
2023/07/06 10:07:43;;;;;;;7.65;2.60;;;;;;;24.38;42.50;96784.25;2085266;28;20670;-60
2023/07/06 10:08:58;;;;;;;18.38;2.30;;;;;;;24.31;42.68;96790.34;2085057;28;20219;-61
2023/07/06 10:10:14;;;;;;;11.10;2.30;;;;;;;24.30;43.19;96786.81;2084163;28;20220;-61
2023/07/06 10:11:36;;;;;;;13.95;2.95;;;;;;;24.48;42.96;96791.31;2082973;28;20201;-61
2023/07/06 10:12:58;;;;;;;7.80;2.13;;;;;;;24.16;43.18;96792.69;2083137;28;20261;-61
2023/07/06 10:14:20;;;;;;;16.67;2.67;;;;;;;23.98;43.05;96782.81;2084377;28;20227;-61
2023/07/06 10:15:55;;;;;;;8.40;2.50;;;;;;;24.05;43.17;96789.22;2084370;28;20250;-60
2023/07/06 10:16:57;;;;;;;9.95;2.50;;;;;;;24.03;43.70;96787.72;2086053;28;20193;-61
2023/07/06 10:18:13;;;;;;;7.60;2.05;;;;;;;23.78;43.64;96788.22;2082885;28;20683;-60
2023/07/06 10:19:21;;;;;;;7.35;1.60;;;;;;;23.45;43.90;96786.94;2083158;28;20197;-60
2023/07/06 10:20:42;;;;;;;11.32;2.60;;;;;;;23.84;43.55;96793.94;2083158;28;20224;-61
2023/07/06 10:21:51;;;;;;;9.00;2.15;;;;;;;24.00;43.14;96785.31;2083262;28;20228;-61
2023/07/06 10:23:24;;;;;;;14.32;2.75;;;;;;;23.56;44.01;96785.94;2084205;28;20586;-60
2023/07/06 10:24:30;;;;;;;7.13;2.63;;;;;;;23.34;44.01;96782.66;2082780;28;20559;-61
2023/07/06 10:25:39;;;;;;;19.92;8.32;;;;;;;23.84;44.35;96789.44;2084971;28;20197;-60
2023/07/06 10:26:49;;;;;;;9.20;2.20;;;;;;;23.80;43.57;96791.56;2085091;28;20200;-61
2023/07/06 10:28:07;;;;;;;5.97;1.83;;;;;;;23.31;44.47;96781.13;2084169;28;20262;-60
2023/07/06 10:29:16;;;;;;;8.32;2.47;;;;;;;23.36;44.38;96790.50;2083856;28;20586;-60
2023/07/06 10:30:31;;;;;;;8.13;2.70;;;;;;;23.36;44.94;96787.84;2083447;28;20679;-61
2023/07/06 10:31:45;;;;;;;11.00;2.47;;;;;;;23.42;44.70;96784.59;2083429;28;20239;-61
2023/07/06 10:32:51;;;;;;;16.15;7.32;;;;;;;22.97;45.41;96794.91;2083243;28;20283;-60
2023/07/06 10:34:02;;;;;;;13.65;4.63;;;;;;;23.44;44.93;96790.63;2083307;28;20640;-60
2023/07/06 10:35:26;;;;;;;13.77;4.80;;;;;;;23.72;44.48;96796.81;2083144;28;20221;-60
2023/07/06 10:36:32;;;;;;;210.27;194.80;;;;;;;23.71;44.93;96791.63;2082965;28;20197;-61
2023/07/06 10:37:35;;;;;;;125.93;116.55;;;;;;;23.62;45.33;96796.03;2082801;28;20308;-60
2023/07/06 10:38:37;;;;;;;231.18;215.50;;;;;;;23.60;45.10;96787.31;2083734;28;20250;-60
2023/07/06 10:39:44;;;;;;;74.78;68.78;;;;;;;23.36;45.70;96790.50;2081307;28;20793;-60
2023/07/06 10:41:12;;;;;;;822.78;760.08;;;;;;;23.47;45.93;96796.47;2076541;28;20645;-60
2023/07/06 10:42:24;;;;;;;15.48;8.43;;;;;;;23.50;45.58;96786.53;2076774;28;20288;-60
2023/07/06 10:43:27;;;;;;;15.80;4.22;;;;;;;23.57;45.27;96787.63;2078221;28;20193;-60
2023/07/06 10:44:55;;;;;;;11.20;2.28;;;;;;;23.30;44.95;96789.28;2078226;28;21026;-60
2023/07/06 10:45:56;;;;;;;37.38;32.10;;;;;;;24.23;44.50;96789.25;2080580;28;20200;-60
2023/07/06 10:46:58;;;;;;;24.50;18.60;;;;;;;24.85;43.50;96791.19;2080394;28;20266;-60
2023/07/06 10:48:25;;;;;;;9.15;2.13;;;;;;;24.96;41.82;96787.41;2078017;28;20719;-61
2023/07/06 10:49:26;;;;;;;17.80;2.97;;;;;;;25.19;41.80;96785.09;2077838;28;20594;-60
2023/07/06 10:50:31;;;;;;;6.38;2.38;;;;;;;25.10;41.97;96786.00;2077799;28;20200;-60
2023/07/06 10:51:46;;;;;;;9.60;2.60;;;;;;;25.05;41.08;96782.97;2078697;28;20243;-61
2023/07/06 10:52:55;;;;;;;8.27;2.33;;;;;;;25.12;41.41;96784.03;2077627;28;20192;-61
2023/07/06 10:54:17;;;;;;;11.90;2.70;;;;;;;25.04;41.98;96784.81;2078897;28;20201;-61
2023/07/06 10:55:23;;;;;;;5.57;1.85;;;;;;;25.03;41.27;96790.34;2077917;28;20260;-60
2023/07/06 10:56:30;;;;;;;6.78;2.08;;;;;;;24.90;41.28;96788.03;2078942;28;20250;-61
2023/07/06 10:57:36;;;;;;;5.70;2.05;;;;;;;24.76;41.13;96794.78;2076601;28;20293;-60
2023/07/06 10:58:55;;;;;;;5.55;1.75;;;;;;;24.18;42.30;96794.19;2078019;28;20262;-60
2023/07/06 11:00:12;;;;;;;5.50;1.73;;;;;;;24.75;41.69;96793.94;2076926;28;20382;-60
2023/07/06 11:01:19;;;;;;;7.75;2.50;;;;;;;24.51;42.20;96793.72;2077503;28;20196;-60
2023/07/06 11:02:25;;;;;;;8.45;2.40;;;;;;;25.24;41.56;96785.47;2077672;28;20285;-60
2023/07/06 11:03:31;;;;;;;15.68;3.55;;;;;;;25.98;40.98;96785.00;2078448;28;20225;-61
2023/07/06 11:04:41;;;;;;;6.18;2.50;;;;;;;25.85;41.08;96781.94;2078246;28;20223;-61
2023/07/06 11:05:55;;;;;;;41.33;27.50;;;;;;;26.66;39.79;96785.00;2078783;28;20228;-61
2023/07/06 11:06:57;;;;;;;56.85;38.58;;;;;;;27.17;39.71;96790.19;2078272;28;20322;-61
2023/07/06 11:08:05;;;;;;;15.57;2.78;;;;;;;26.96;38.51;96783.53;2077970;28;20197;-61
2023/07/06 11:09:08;;;;;;;5.80;2.22;;;;;;;26.31;39.45;96789.63;2079276;28;20299;-61
2023/07/06 11:10:13;;;;;;;7.20;1.92;;;;;;;25.62;41.30;96792.38;2078223;28;20221;-60
2023/07/06 11:11:20;;;;;;;7.95;2.20;;;;;;;25.89;40.88;96786.81;2078009;28;20197;-61
2023/07/06 11:12:23;;;;;;;8.38;2.10;;;;;;;25.93;41.27;96800.72;2078954;28;20201;-61
2023/07/06 11:13:25;;;;;;;7.82;2.22;;;;;;;24.94;41.40;96778.75;2076831;28;20518;-61
2023/07/06 11:14:35;;;;;;;8.98;1.85;;;;;;;25.00;41.95;96788.81;2076819;28;20703;-61
2023/07/06 11:15:43;;;;;;;5.80;2.60;;;;;;;25.49;41.62;96785.63;2078155;28;20855;-60
2023/07/06 11:16:55;;;;;;;8.43;2.60;;;;;;;26.12;40.62;96785.41;2078501;28;20204;-61
2023/07/06 11:18:03;;;;;;;6.20;2.00;;;;;;;25.82;40.63;96782.28;2078739;28;20193;-60
2023/07/06 11:19:05;;;;;;;5.68;1.60;;;;;;;26.14;40.40;96786.09;2078660;28;20225;-61
2023/07/06 11:20:15;;;;;;;10.90;2.08;;;;;;;25.75;40.82;96780.25;2078893;28;20317;-61
2023/07/06 11:21:16;;;;;;;4.68;2.15;;;;;;;25.82;41.11;96790.28;2078030;28;20198;-60
2023/07/06 11:22:22;;;;;;;8.73;2.78;;;;;;;26.03;40.58;96781.81;2076930;28;20233;-61
2023/07/06 11:23:56;;;;;;;7.38;1.85;;;;;;;25.42;41.73;96787.28;2078038;28;20197;-60
2023/07/06 11:25:04;;;;;;;4.88;2.10;;;;;;;25.14;42.13;96786.53;2076460;28;20208;-60
2023/07/06 11:26:23;;;;;;;5.15;2.45;;;;;;;25.30;42.02;96780.47;2075768;28;20596;-60
2023/07/06 11:27:30;;;;;;;5.70;1.98;;;;;;;25.12;42.43;96794.72;2070297;28;20667;-61
2023/07/06 11:28:33;;;;;;;10.52;2.35;;;;;;;24.78;42.45;96792.78;2070202;28;20287;-61
2023/07/06 11:29:36;;;;;;;6.65;2.30;;;;;;;24.82;42.55;96788.00;2076298;28;20209;-60
2023/07/06 11:31:10;;;;;;;9.13;2.00;;;;;;;24.87;42.89;96793.69;2076165;28;20814;-60
2023/07/06 11:32:20;;;;;;;10.23;1.63;;;;;;;24.67;43.17;96788.53;2077566;28;20201;-60
2023/07/06 11:33:41;;;;;;;8.77;2.10;;;;;;;24.93;43.11;96793.09;2078158;28;20194;-60
2023/07/06 11:35:09;;;;;;;8.50;1.83;;;;;;;24.84;42.88;96789.50;2075689;28;20222;-61
2023/07/06 11:36:19;;;;;;;11.93;2.40;;;;;;;24.44;43.05;96790.78;2077962;28;20736;-60
2023/07/06 11:37:27;;;;;;;7.22;2.47;;;;;;;24.44;43.37;96791.66;2078174;28;20200;-61
2023/07/06 11:38:57;;;;;;;10.95;2.08;;;;;;;24.57;43.56;96793.06;2075640;28;20204;-61
2023/07/06 11:40:08;;;;;;;9.25;2.00;;;;;;;25.07;42.22;96787.16;2077111;28;20260;-60
2023/07/06 11:41:12;;;;;;;6.90;2.15;;;;;;;25.15;41.70;96791.72;2078755;28;20584;-61
2023/07/06 11:42:44;;;;;;;7.85;2.05;;;;;;;25.89;41.76;96792.16;2076412;28;20753;-60
2023/07/06 11:44:05;;;;;;;8.43;2.58;;;;;;;25.90;40.99;96782.28;2078508;28;20212;-61
2023/07/06 11:45:20;;;;;;;6.00;2.40;;;;;;;26.30;40.05;96786.13;2077360;28;20300;-60
2023/07/06 11:46:44;;;;;;;7.10;1.88;;;;;;;27.01;39.31;96781.16;2078605;28;20246;-60
2023/07/06 11:48:06;;;;;;;4.40;2.03;;;;;;;26.92;38.67;96782.19;2077206;28;20193;-60
2023/07/06 11:49:31;;;;;;;9.27;2.15;;;;;;;26.97;38.76;96787.03;2077996;28;20714;-61
2023/07/06 11:50:37;;;;;;;11.43;1.95;;;;;;;27.35;38.30;96788.16;2076640;28;20214;-60
2023/07/06 11:51:39;;;;;;;5.88;2.45;;;;;;;27.27;38.47;96781.97;2076142;28;20201;-60
2023/07/06 11:54:40;;;;;;;4.47;1.85;;;;;;;27.33;38.26;96778.63;2069412;28;20251;-60
2023/07/06 11:55:50;;;;;;;8.18;1.77;;;;;;;27.78;37.58;96776.31;2078194;28;20901;-60
2023/07/06 11:57:13;;;;;;;6.00;1.50;;;;;;;27.72;37.47;96779.69;2079277;28;20729;-60
2023/07/06 11:59:37;;;;;;;5.05;2.10;;;;;;;27.01;37.99;96777.66;2077397;28;20242;-59
2023/07/06 12:00:48;;;;;;;9.10;4.15;;;;;;;27.56;38.07;96775.25;2079093;28;20243;-61
2023/07/06 12:01:58;;;;;;;25.85;5.47;;;;;;;26.99;37.85;96772.44;2076770;28;20193;-60
2023/07/06 12:03:10;;;;;;;9.80;3.28;;;;;;;27.38;37.61;96778.94;2074443;28;20721;-60
2023/07/06 12:04:20;;;;;;;9.70;2.85;;;;;;;27.90;36.96;96777.63;2076102;28;20201;-60
2023/07/06 12:05:34;;;;;;;6.20;2.60;;;;;;;27.67;36.50;96772.19;2078191;28;20257;-60
2023/07/06 12:06:35;;;;;;;6.15;2.28;;;;;;;28.04;36.46;96770.72;2078430;28;20212;-60
2023/07/06 12:07:37;;;;;;;8.00;2.30;;;;;;;28.15;36.57;96766.78;2078522;28;20228;-60
2023/07/06 12:08:38;;;;;;;9.88;2.83;;;;;;;27.90;36.35;96769.56;2079471;28;20216;-60
2023/07/06 12:09:41;;;;;;;8.43;2.60;;;;;;;27.38;37.41;96762.84;2079219;28;20243;-61
2023/07/06 12:10:48;;;;;;;10.05;2.20;;;;;;;27.20;37.07;96765.75;2077335;28;20727;-60
2023/07/06 12:12:06;;;;;;;5.75;2.42;;;;;;;27.45;37.27;96774.59;2077345;28;20202;-60
2023/07/06 12:13:22;;;;;;;5.10;2.30;;;;;;;28.09;36.61;96776.38;2077555;28;20200;-60
2023/07/06 12:14:27;;;;;;;3.85;2.03;;;;;;;26.78;37.42;96764.97;2076993;28;20292;-60
2023/07/06 12:15:29;;;;;;;13.25;3.30;;;;;;;27.65;36.49;96774.19;2077130;28;20236;-61
2023/07/06 12:16:41;;;;;;;7.95;2.80;;;;;;;26.62;37.82;96764.91;2076938;28;20197;-60
2023/07/06 12:17:45;;;;;;;4.13;2.00;;;;;;;26.47;38.90;96762.88;2077367;28;20197;-61
2023/07/06 12:18:53;;;;;;;4.35;2.50;;;;;;;26.85;38.19;96763.25;2078430;28;20200;-60
2023/07/06 12:19:57;;;;;;;4.38;2.10;;;;;;;26.73;39.34;96762.78;2077570;28;20221;-60
2023/07/06 12:21:00;;;;;;;5.25;1.77;;;;;;;27.11;38.51;96762.25;2077131;28;20204;-61
2023/07/06 12:22:02;;;;;;;4.82;2.20;;;;;;;27.21;39.01;96762.91;2076921;28;20201;-60
2023/07/06 12:23:04;;;;;;;8.18;2.83;;;;;;;27.63;38.52;96771.69;2077583;28;20224;-60
2023/07/06 12:24:11;;;;;;;5.95;2.10;;;;;;;27.66;37.83;96762.47;2078316;28;20548;-61
2023/07/06 12:25:31;;;;;;;6.15;2.30;;;;;;;27.57;37.57;96758.97;2076156;28;20278;-61
2023/07/06 12:26:34;;;;;;;5.40;2.08;;;;;;;27.22;38.80;96761.03;2078358;28;20205;-60
2023/07/06 12:27:36;;;;;;;8.43;2.60;;;;;;;27.11;37.75;96764.94;2076486;28;20202;-60
2023/07/06 12:28:37;;;;;;;7.38;1.95;;;;;;;27.41;37.78;96767.06;2076623;28;20282;-61
2023/07/06 12:29:39;;;;;;;5.05;2.22;;;;;;;27.30;37.84;96763.72;2076197;28;20230;-61
2023/07/06 12:30:43;;;;;;;17.33;2.65;;;;;;;27.48;37.57;96758.16;2076722;28;20383;-60
2023/07/06 12:31:46;;;;;;;6.55;2.00;;;;;;;27.77;37.85;96758.56;2076981;28;21058;-61
2023/07/06 12:32:48;;;;;;;5.63;2.35;;;;;;;27.73;37.62;96762.59;2077812;28;20272;-60
2023/07/06 12:33:54;;;;;;;4.80;2.50;;;;;;;28.42;36.70;96761.94;2078829;28;20205;-60
2023/07/06 12:34:56;;;;;;;12.35;2.17;;;;;;;28.37;36.04;96765.16;2076825;28;20262;-61
2023/07/06 12:35:57;;;;;;;4.35;2.20;;;;;;;27.91;36.00;96754.28;2077573;28;20225;-60
2023/07/06 12:37:02;;;;;;;4.03;1.90;;;;;;;27.84;36.31;96762.22;2078080;28;20212;-60
2023/07/06 12:38:09;;;;;;;5.05;2.10;;;;;;;27.85;36.44;96755.84;2076833;28;20258;-61
2023/07/06 12:39:18;;;;;;;9.07;2.55;;;;;;;26.53;37.67;96746.16;2074820;28;20285;-60
2023/07/06 12:40:22;;;;;;;6.40;2.28;;;;;;;25.19;40.66;96747.69;2075736;28;20226;-60
2023/07/06 12:41:24;;;;;;;7.13;2.15;;;;;;;25.48;40.19;96756.38;2079293;28;20672;-60
2023/07/06 12:42:26;;;;;;;12.02;2.55;;;;;;;25.59;39.28;96759.59;2079573;28;20516;-60
2023/07/06 12:43:32;;;;;;;4.40;2.30;;;;;;;25.65;39.73;96746.59;2077099;28;20201;-60
2023/07/06 12:44:37;;;;;;;8.77;2.10;;;;;;;25.78;39.55;96747.00;2076126;28;20542;-60
2023/07/06 12:45:39;;;;;;;10.50;2.50;;;;;;;26.35;38.86;96743.66;2076816;28;20684;-60
2023/07/06 12:46:47;;;;;;;7.10;2.08;;;;;;;25.94;39.25;96748.03;2077936;28;20202;-60
2023/07/06 12:47:57;;;;;;;3.80;2.10;;;;;;;25.73;39.52;96741.28;2077485;28;20693;-61
2023/07/06 12:49:10;;;;;;;5.60;2.67;;;;;;;26.82;38.64;96747.53;2079143;28;20265;-60
2023/07/06 12:50:25;;;;;;;8.45;2.65;;;;;;;27.25;37.46;96750.00;2076733;28;20233;-60
2023/07/06 12:51:28;;;;;;;5.30;2.30;;;;;;;27.50;37.48;96747.25;2076984;28;20204;-60
2023/07/06 12:52:32;;;;;;;6.20;1.83;;;;;;;27.88;37.00;96738.56;2077887;28;20204;-60
2023/07/06 12:53:33;;;;;;;6.32;2.45;;;;;;;27.79;36.69;96748.50;2076517;28;20240;-61
2023/07/06 12:54:36;;;;;;;7.97;2.28;;;;;;;28.53;36.23;96750.75;2077886;28;20244;-60
2023/07/06 12:55:41;;;;;;;5.85;3.13;;;;;;;28.89;35.71;96735.91;2078325;28;20224;-60
2023/07/06 12:56:44;;;;;;;5.43;2.40;;;;;;;28.89;35.61;96741.28;2077151;28;20205;-61
2023/07/06 12:57:46;;;;;;;4.60;1.98;;;;;;;28.41;36.03;96747.66;2077649;28;20189;-60
2023/07/06 12:58:57;;;;;;;4.68;2.28;;;;;;;28.32;35.58;96746.06;2077200;28;20284;-60
2023/07/06 13:00:25;;;;;;;5.97;2.50;;;;;;;29.16;35.07;96746.03;2075955;28;20316;-60
2023/07/06 13:01:34;;;;;;;7.28;1.75;;;;;;;28.92;34.82;96746.28;2076577;28;20221;-60
2023/07/06 13:02:37;;;;;;;3.00;2.08;;;;;;;28.47;35.67;96743.44;2077545;28;20280;-61
2023/07/06 13:03:58;;;;;;;7.43;2.05;;;;;;;27.68;36.07;96737.16;2077959;28;20636;-60
2023/07/06 13:05:15;;;;;;;4.28;1.98;;;;;;;26.00;38.49;96734.00;2078573;28;20231;-60
2023/07/06 13:06:19;;;;;;;4.28;2.10;;;;;;;25.68;38.18;96724.91;2075926;28;20334;-60
2023/07/06 13:07:25;;;;;;;4.03;1.92;;;;;;;26.26;38.59;96738.44;2078730;28;20274;-60
2023/07/06 13:08:27;;;;;;;7.15;2.05;;;;;;;26.58;37.44;96734.13;2076844;28;20197;-60
2023/07/06 13:09:31;;;;;;;7.60;2.40;;;;;;;26.39;38.20;96734.28;2077407;28;20259;-60
2023/07/06 13:10:34;;;;;;;4.65;2.25;;;;;;;27.02;37.56;96733.78;2077955;28;20209;-60
2023/07/06 13:11:38;;;;;;;7.80;2.15;;;;;;;27.49;36.84;96735.72;2077890;28;20650;-60
2023/07/06 13:12:43;;;;;;;5.07;1.90;;;;;;;27.84;37.15;96717.44;2078250;28;20201;-60
2023/07/06 13:13:48;;;;;;;8.45;2.42;;;;;;;28.30;36.54;96731.97;2077654;28;20247;-60
2023/07/06 13:14:53;;;;;;;3.72;2.08;;;;;;;28.72;35.76;96725.31;2078101;28;20222;-60
2023/07/06 13:15:58;;;;;;;6.40;2.30;;;;;;;28.52;35.68;96725.75;2073640;28;20193;-60
2023/07/06 13:17:05;;;;;;;6.72;2.50;;;;;;;27.67;35.50;96729.28;2076769;28;20228;-60
2023/07/06 13:18:14;;;;;;;6.85;2.63;;;;;;;27.89;35.66;96724.97;2078602;28;20201;-60
2023/07/06 13:19:16;;;;;;;5.47;2.30;;;;;;;27.47;36.46;96721.63;2077550;28;20535;-60
2023/07/06 13:20:17;;;;;;;26.30;18.40;;;;;;;27.48;36.59;96720.63;2075825;28;20571;-60
2023/07/06 13:21:26;;;;;;;10.20;6.00;;;;;;;27.01;37.47;96716.88;2077020;28;20248;-60
2023/07/06 13:22:29;;;;;;;5.88;2.85;;;;;;;27.70;36.57;96727.06;2077208;28;20197;-60
2023/07/06 13:23:30;;;;;;;12.48;5.60;;;;;;;27.58;36.54;96719.56;2078238;28;20204;-60
2023/07/06 13:24:39;;;;;;;5.40;2.30;;;;;;;27.67;36.89;96721.22;2079195;28;20230;-59
2023/07/06 13:25:45;;;;;;;4.75;2.25;;;;;;;28.92;35.70;96725.59;2075543;28;20202;-60
2023/07/06 13:26:47;;;;;;;5.60;2.33;;;;;;;29.62;34.87;96725.38;2075699;28;20284;-60
2023/07/06 13:27:49;;;;;;;4.95;2.10;;;;;;;30.05;34.66;96722.00;2075478;28;20197;-60
2023/07/06 13:28:51;;;;;;;3.88;2.50;;;;;;;29.68;33.89;96721.94;2076349;28;20900;-60